createdAt,value
2022-11-27T00:01:10.919Z,9.20
2022-11-27T00:03:37.748Z,9.26
2022-11-27T00:06:04.473Z,9.24
2022-11-27T00:08:33.786Z,9.28
2022-11-27T00:11:07.524Z,9.28
2022-11-27T00:13:34.183Z,9.30
2022-11-27T00:16:00.988Z,9.26
2022-11-27T00:18:30.170Z,9.26
2022-11-27T00:21:10.119Z,9.23
2022-11-27T00:23:42.193Z,9.20
2022-11-27T00:26:11.476Z,9.18
2022-11-27T00:28:38.215Z,9.12
2022-11-27T00:31:27.142Z,9.14
2022-11-27T00:33:54.198Z,9.13
2022-11-27T00:36:23.306Z,9.06
2022-11-27T00:38:49.833Z,9.11
2022-11-27T00:41:17.376Z,9.14
2022-11-27T00:43:45.277Z,9.14
2022-11-27T00:46:13.148Z,9.17
2022-11-27T00:48:42.228Z,9.20
2022-11-27T00:51:09.911Z,9.23
2022-11-27T00:53:36.649Z,9.24
2022-11-27T00:56:05.641Z,9.18
2022-11-27T00:58:32.208Z,9.14
2022-11-27T01:01:03.429Z,9.10
2022-11-27T01:03:30.230Z,9.01
2022-11-27T01:05:56.982Z,8.88
2022-11-27T01:08:23.642Z,8.77
2022-11-27T01:10:54.587Z,8.70
2022-11-27T01:13:25.537Z,8.65
2022-11-27T01:16:06.442Z,8.59
2022-11-27T01:18:33.799Z,8.53
2022-11-27T01:21:00.348Z,8.44
2022-11-27T01:23:29.442Z,8.39
2022-11-27T01:26:00.588Z,8.32
2022-11-27T01:28:27.225Z,8.22
2022-11-27T01:30:53.997Z,8.18
2022-11-27T01:33:20.628Z,8.18
2022-11-27T01:35:56.954Z,8.16
2022-11-27T01:38:23.901Z,8.16
2022-11-27T01:40:56.814Z,8.15
2022-11-27T01:43:39.045Z,8.14
2022-11-27T01:46:07.379Z,8.15
2022-11-27T01:48:34.021Z,8.14
2022-11-27T01:51:00.553Z,8.21
2022-11-27T01:53:29.668Z,8.22
2022-11-27T01:56:01.549Z,8.24
2022-11-27T01:58:29.034Z,8.25
2022-11-27T02:00:55.605Z,8.22
2022-11-27T02:03:24.618Z,8.17
2022-11-27T02:05:51.494Z,8.12
2022-11-27T02:08:18.022Z,8.14
2022-11-27T02:10:44.596Z,8.15
2022-11-27T02:13:19.715Z,8.15
2022-11-27T02:16:01.569Z,8.19
2022-11-27T02:18:28.218Z,8.17
2022-11-27T02:20:59.920Z,8.12
2022-11-27T02:23:37.121Z,8.09
2022-11-27T02:26:22.734Z,8.06
2022-11-27T02:28:58.630Z,8.08
2022-11-27T02:31:25.308Z,8.13
2022-11-27T02:33:53.129Z,8.14
2022-11-27T02:36:24.711Z,8.13
2022-11-27T02:38:52.344Z,8.09
2022-11-27T02:41:24.970Z,8.06
2022-11-27T02:43:51.655Z,8.01
2022-11-27T02:46:18.807Z,8.01
2022-11-27T02:48:50.185Z,8.01
2022-11-27T02:51:18.349Z,7.99
2022-11-27T02:53:55.241Z,7.97
2022-11-27T02:56:22.474Z,7.96
2022-11-27T02:58:49.470Z,7.95
2022-11-27T03:01:16.315Z,7.97
2022-11-27T03:03:46.327Z,7.99
2022-11-27T03:06:15.877Z,8.00
2022-11-27T03:08:43.928Z,7.99
2022-11-27T03:11:13.683Z,7.99
2022-11-27T03:13:41.581Z,7.99
2022-11-27T03:16:20.717Z,8.02
2022-11-27T03:19:06.011Z,7.99
2022-11-27T03:21:37.510Z,7.97
2022-11-27T03:24:04.220Z,7.95
2022-11-27T03:26:30.853Z,7.97
2022-11-27T03:28:57.433Z,7.97
2022-11-27T03:31:24.089Z,7.97
2022-11-27T03:33:53.128Z,7.97
2022-11-27T03:36:24.811Z,7.99
2022-11-27T03:38:51.695Z,8.01
2022-11-27T03:41:31.171Z,8.01
2022-11-27T03:44:07.269Z,7.99
2022-11-27T03:46:54.146Z,8.01
2022-11-27T03:49:26.971Z,8.06
2022-11-27T03:52:14.975Z,8.08
2022-11-27T03:54:52.881Z,8.10
2022-11-27T03:57:21.037Z,8.09
2022-11-27T03:59:48.083Z,8.06
2022-11-27T04:02:18.112Z,8.02
2022-11-27T04:04:44.811Z,8.02
2022-11-27T04:07:17.768Z,8.00
2022-11-27T04:09:44.466Z,8.02
2022-11-27T04:12:10.976Z,8.03
2022-11-27T04:14:37.671Z,8.06
2022-11-27T04:17:04.370Z,8.05
2022-11-27T04:19:33.561Z,8.12
2022-11-27T04:22:02.522Z,8.18
2022-11-27T04:24:29.181Z,8.21
2022-11-27T04:26:55.718Z,8.15
2022-11-27T04:29:22.668Z,8.14
2022-11-27T04:31:49.377Z,8.16
2022-11-27T04:34:16.067Z,8.15
2022-11-27T04:36:46.297Z,8.12
2022-11-27T04:39:13.591Z,8.09
2022-11-27T04:41:40.279Z,8.10
2022-11-27T04:44:06.905Z,8.14
2022-11-27T04:46:33.492Z,8.23
2022-11-27T04:49:00.082Z,8.30
2022-11-27T04:51:26.701Z,8.30
2022-11-27T04:53:53.180Z,8.32
2022-11-27T04:56:22.109Z,8.33
2022-11-27T04:58:49.090Z,8.35
2022-11-27T05:01:16.018Z,8.32
2022-11-27T05:03:42.711Z,8.32
2022-11-27T05:06:09.287Z,8.33
2022-11-27T05:08:35.925Z,8.37
2022-11-27T05:11:06.889Z,8.41
2022-11-27T05:13:33.803Z,8.45
2022-11-27T05:16:02.696Z,8.48
2022-11-27T05:18:29.395Z,8.54
2022-11-27T05:20:59.958Z,8.60
2022-11-27T05:23:28.980Z,8.60
2022-11-27T05:25:55.588Z,8.61
2022-11-27T05:28:26.466Z,8.60
2022-11-27T05:30:53.443Z,8.59
2022-11-27T05:33:20.008Z,8.61
2022-11-27T05:35:46.589Z,8.60
2022-11-27T05:38:13.090Z,8.63
2022-11-27T05:40:39.899Z,8.61
2022-11-27T05:43:08.819Z,8.63
2022-11-27T05:45:37.024Z,8.61
2022-11-27T05:48:03.590Z,8.64
2022-11-27T05:50:30.516Z,8.66
2022-11-27T05:53:01.301Z,8.69
2022-11-27T05:55:28.126Z,8.72
2022-11-27T05:57:59.392Z,8.74
2022-11-27T06:00:27.258Z,8.69
2022-11-27T06:02:57.598Z,8.63
2022-11-27T06:05:24.709Z,8.65
2022-11-27T06:07:51.979Z,8.54
2022-11-27T06:10:24.438Z,8.47
2022-11-27T06:12:53.613Z,8.48
2022-11-27T06:15:22.922Z,8.54
2022-11-27T06:17:49.909Z,8.55
2022-11-27T06:20:17.248Z,8.58
2022-11-27T06:22:43.994Z,8.63
2022-11-27T06:25:11.102Z,8.70
2022-11-27T06:27:40.746Z,8.67
2022-11-27T06:30:08.849Z,8.60
2022-11-27T06:32:35.456Z,8.64
2022-11-27T06:35:07.547Z,8.68
2022-11-27T06:37:34.187Z,8.66
2022-11-27T06:40:01.107Z,8.64
2022-11-27T06:42:30.717Z,8.64
2022-11-27T06:44:57.655Z,8.66
2022-11-27T06:47:24.349Z,8.67
2022-11-27T06:49:50.923Z,8.62
2022-11-27T06:52:17.636Z,8.67
2022-11-27T06:54:44.268Z,8.71
2022-11-27T06:57:11.483Z,8.71
2022-11-27T06:59:40.544Z,8.79
2022-11-27T07:02:07.168Z,8.76
2022-11-27T07:04:34.396Z,8.76
2022-11-27T07:07:01.194Z,8.81
2022-11-27T07:09:27.831Z,8.86
2022-11-27T07:11:54.415Z,8.86
2022-11-27T07:14:24.116Z,8.87
2022-11-27T07:16:50.799Z,8.87
2022-11-27T07:19:17.451Z,8.91
2022-11-27T07:21:46.483Z,8.95
2022-11-27T07:24:18.029Z,9.00
2022-11-27T07:26:44.658Z,8.92
2022-11-27T07:29:11.211Z,8.96
2022-11-27T07:31:40.330Z,9.02
2022-11-27T07:34:09.923Z,9.07
2022-11-27T07:36:40.753Z,9.11
2022-11-27T07:39:07.253Z,9.13
2022-11-27T07:41:38.393Z,9.10
2022-11-27T07:44:05.042Z,9.13
2022-11-27T07:46:34.183Z,9.15
2022-11-27T07:49:03.948Z,9.17
2022-11-27T07:51:30.644Z,9.22
2022-11-27T07:54:02.531Z,9.26
2022-11-27T07:56:30.550Z,9.32
2022-11-27T07:59:00.455Z,9.37
2022-11-27T08:01:32.060Z,9.43
2022-11-27T08:04:01.079Z,9.50
2022-11-27T08:06:32.042Z,9.53
2022-11-27T08:08:58.709Z,9.57
2022-11-27T08:11:26.346Z,9.55
2022-11-27T08:14:00.080Z,9.47
2022-11-27T08:16:27.362Z,9.49
2022-11-27T08:18:54.993Z,9.55
2022-11-27T08:21:21.626Z,9.64
2022-11-27T08:23:48.169Z,9.62
2022-11-27T08:26:14.901Z,9.57
2022-11-27T08:28:43.887Z,9.56
2022-11-27T08:31:13.565Z,9.53
2022-11-27T08:33:40.465Z,9.61
2022-11-27T08:36:09.748Z,9.64
2022-11-27T08:38:38.194Z,9.65
2022-11-27T08:41:05.217Z,9.65
2022-11-27T08:43:34.762Z,9.65
2022-11-27T08:46:03.729Z,9.66
2022-11-27T08:48:30.486Z,9.70
2022-11-27T08:50:56.984Z,9.75
2022-11-27T08:53:25.892Z,9.77
2022-11-27T08:55:55.000Z,9.83
2022-11-27T08:58:21.658Z,9.83
2022-11-27T09:00:48.457Z,9.86
2022-11-27T09:03:17.514Z,9.94
2022-11-27T09:05:44.914Z,10.02
2022-11-27T09:08:16.452Z,10.09
2022-11-27T09:10:45.113Z,10.16
2022-11-27T09:13:11.641Z,10.12
2022-11-27T09:15:38.586Z,10.12
2022-11-27T09:18:05.436Z,10.09
2022-11-27T09:20:31.937Z,10.13
2022-11-27T09:23:02.572Z,10.10
2022-11-27T09:25:29.347Z,10.06
2022-11-27T09:27:55.956Z,10.03
2022-11-27T09:30:22.541Z,9.99
2022-11-27T09:32:49.750Z,10.01
2022-11-27T09:35:16.435Z,9.98
2022-11-27T09:37:45.143Z,9.94
2022-11-27T09:40:17.691Z,9.95
2022-11-27T09:42:48.045Z,9.92
2022-11-27T09:45:15.161Z,9.85
2022-11-27T09:47:49.941Z,9.84
2022-11-27T09:50:21.579Z,9.76
2022-11-27T09:52:50.349Z,9.69
2022-11-27T09:55:18.549Z,9.75
2022-11-27T09:57:49.070Z,9.79
2022-11-27T10:00:17.462Z,9.82
2022-11-27T10:02:45.144Z,9.80
2022-11-27T10:05:15.010Z,9.86
2022-11-27T10:08:08.425Z,9.90
2022-11-27T10:10:52.273Z,9.88
2022-11-27T10:13:18.990Z,9.85
2022-11-27T10:15:53.370Z,9.82
2022-11-27T10:18:32.355Z,9.90
2022-11-27T10:21:01.493Z,9.95
2022-11-27T10:23:34.329Z,9.98
2022-11-27T10:26:10.805Z,10.03
2022-11-27T10:28:39.946Z,9.89
2022-11-27T10:31:09.536Z,9.92
2022-11-27T10:33:53.825Z,9.86
2022-11-27T10:36:42.309Z,9.90
2022-11-27T10:39:15.895Z,9.95
2022-11-27T10:41:49.900Z,9.96
2022-11-27T10:44:22.043Z,10.06
2022-11-27T10:46:50.503Z,10.14
2022-11-27T10:49:19.563Z,10.24
2022-11-27T10:51:46.110Z,10.28
2022-11-27T10:54:28.138Z,10.26
2022-11-27T10:57:13.472Z,10.24
2022-11-27T10:59:51.071Z,10.27
2022-11-27T11:02:31.729Z,10.32
2022-11-27T11:05:35.025Z,10.35
2022-11-27T11:08:06.345Z,10.38
2022-11-27T11:10:41.094Z,10.42
2022-11-27T11:13:15.845Z,10.41
2022-11-27T11:16:03.514Z,10.34
2022-11-27T11:18:35.832Z,10.37
2022-11-27T11:21:08.041Z,10.34
2022-11-27T11:23:35.761Z,10.36
2022-11-27T11:26:29.457Z,10.36
2022-11-27T11:28:59.030Z,10.37
2022-11-27T11:31:36.197Z,10.32
2022-11-27T11:34:07.942Z,10.34
2022-11-27T11:36:56.523Z,10.30
2022-11-27T11:39:24.650Z,10.25
2022-11-27T11:41:53.853Z,10.29
2022-11-27T11:44:22.491Z,10.34
2022-11-27T11:46:54.627Z,10.42
2022-11-27T11:49:25.053Z,10.53
2022-11-27T11:52:23.225Z,10.59
2022-11-27T11:54:53.594Z,10.71
2022-11-27T11:57:29.779Z,10.77
2022-11-27T12:00:05.272Z,10.79
2022-11-27T12:02:44.270Z,10.81
2022-11-27T12:05:22.648Z,10.81
2022-11-27T12:07:58.345Z,10.75
2022-11-27T12:10:45.734Z,10.73
2022-11-27T12:13:14.884Z,10.76
2022-11-27T12:15:43.827Z,10.77
2022-11-27T12:18:10.607Z,10.71
2022-11-27T12:20:39.755Z,10.65
2022-11-27T12:23:08.674Z,10.52
2022-11-27T12:25:40.527Z,10.41
2022-11-27T12:28:28.462Z,10.36
2022-11-27T12:30:57.838Z,10.32
2022-11-27T12:33:33.477Z,10.34
2022-11-27T12:36:12.610Z,10.32
2022-11-27T12:38:42.149Z,10.33
2022-11-27T12:41:08.828Z,10.32
2022-11-27T12:43:48.871Z,10.27
2022-11-27T12:46:17.164Z,10.26
2022-11-27T12:48:58.854Z,10.29
2022-11-27T12:51:32.769Z,10.26
2022-11-27T12:54:05.510Z,10.23
2022-11-27T12:56:32.148Z,10.19
2022-11-27T12:59:09.151Z,10.18
2022-11-27T13:01:54.821Z,10.16
2022-11-27T13:04:21.406Z,10.10
2022-11-27T13:07:08.210Z,10.10
2022-11-27T13:09:39.837Z,10.04
2022-11-27T13:12:09.091Z,9.98
2022-11-27T13:14:38.773Z,9.99
2022-11-27T13:17:05.917Z,9.98
2022-11-27T13:19:32.936Z,9.95
2022-11-27T13:22:02.481Z,9.91
2022-11-27T13:24:29.123Z,9.92
2022-11-27T13:27:04.790Z,9.98
2022-11-27T13:29:35.981Z,9.97
2022-11-27T13:32:03.438Z,9.98
2022-11-27T13:34:32.731Z,9.97
2022-11-27T13:37:06.000Z,10.00
2022-11-27T13:39:37.927Z,10.03
2022-11-27T13:42:04.521Z,10.02
2022-11-27T13:44:31.143Z,10.02
2022-11-27T13:47:05.292Z,9.99
2022-11-27T13:49:36.628Z,9.99
2022-11-27T13:52:04.289Z,9.94
2022-11-27T13:54:30.905Z,9.93
2022-11-27T13:57:09.720Z,9.95
2022-11-27T13:59:39.633Z,9.91
2022-11-27T14:02:11.261Z,9.90
2022-11-27T14:04:51.688Z,9.88
2022-11-27T14:07:23.409Z,9.85
2022-11-27T14:09:51.795Z,9.84
2022-11-27T14:12:18.759Z,9.82
2022-11-27T14:14:45.584Z,9.82
2022-11-27T14:17:25.336Z,9.83
2022-11-27T14:19:59.143Z,9.79
2022-11-27T14:22:48.546Z,9.76
2022-11-27T14:25:36.344Z,9.78
2022-11-27T14:28:05.371Z,9.72
2022-11-27T14:30:41.248Z,9.72
2022-11-27T14:33:18.281Z,9.71
2022-11-27T14:35:47.818Z,9.71
2022-11-27T14:38:14.927Z,9.71
2022-11-27T14:40:41.798Z,9.71
2022-11-27T14:43:20.486Z,9.71
2022-11-27T14:45:47.783Z,9.70
2022-11-27T14:48:18.633Z,9.69
2022-11-27T14:50:46.397Z,9.68
2022-11-27T14:53:15.318Z,9.68
2022-11-27T14:55:41.867Z,9.65
2022-11-27T14:58:09.343Z,9.63
2022-11-27T15:00:35.857Z,9.63
2022-11-27T15:03:09.370Z,9.65
2022-11-27T15:05:36.873Z,9.64
2022-11-27T15:08:03.567Z,9.62
2022-11-27T15:10:37.515Z,9.59
2022-11-27T15:13:04.568Z,9.57
2022-11-27T15:15:34.820Z,9.55
2022-11-27T15:18:07.333Z,9.51
2022-11-27T15:20:40.638Z,9.51
2022-11-27T15:23:24.443Z,9.53
2022-11-27T15:26:15.839Z,9.49
2022-11-27T15:28:50.505Z,9.45
2022-11-27T15:31:24.891Z,9.40
2022-11-27T15:33:59.855Z,9.34
2022-11-27T15:36:28.610Z,9.32
2022-11-27T15:39:04.130Z,9.32
2022-11-27T15:41:33.197Z,9.35
2022-11-27T15:43:59.818Z,9.38
2022-11-27T15:46:30.133Z,9.38
2022-11-27T15:48:56.999Z,9.39
2022-11-27T15:51:24.891Z,9.39
2022-11-27T15:53:53.908Z,9.40
2022-11-27T15:56:20.972Z,9.41
2022-11-27T15:58:47.738Z,9.40
2022-11-27T16:01:14.407Z,9.43
2022-11-27T16:03:41.154Z,9.41
2022-11-27T16:06:08.583Z,9.44
2022-11-27T16:08:35.145Z,9.45
2022-11-27T16:11:02.754Z,9.44
2022-11-27T16:13:34.629Z,9.40
2022-11-27T16:16:02.237Z,9.44
2022-11-27T16:18:29.471Z,9.43
2022-11-27T16:20:56.049Z,9.43
2022-11-27T16:23:22.591Z,9.38
2022-11-27T16:25:54.563Z,9.38
2022-11-27T16:28:26.074Z,9.39
2022-11-27T16:30:58.726Z,9.41
2022-11-27T16:33:28.397Z,9.43
2022-11-27T16:36:06.892Z,9.42
2022-11-27T16:38:34.173Z,9.39
2022-11-27T16:41:06.472Z,9.39
2022-11-27T16:43:37.477Z,9.38
2022-11-27T16:46:10.120Z,9.38
2022-11-27T16:48:37.673Z,9.40
2022-11-27T16:51:04.199Z,9.40
2022-11-27T16:53:33.869Z,9.38
2022-11-27T16:56:00.890Z,9.35
2022-11-27T16:58:41.336Z,9.33
2022-11-27T17:04:19.899Z,9.32
2022-11-27T17:06:48.262Z,9.27
2022-11-27T17:09:18.808Z,9.26
2022-11-27T17:11:50.772Z,9.27
2022-11-27T17:14:21.717Z,9.29
2022-11-27T17:16:49.608Z,9.29
2022-11-27T17:19:25.575Z,9.29
2022-11-27T17:22:02.784Z,9.25
2022-11-27T17:24:36.444Z,9.24
2022-11-27T17:27:14.828Z,9.24
2022-11-27T17:29:42.137Z,9.24
2022-11-27T17:32:13.052Z,9.31
2022-11-27T17:34:43.312Z,9.36
2022-11-27T17:37:13.401Z,9.38
2022-11-27T17:39:41.228Z,9.33
2022-11-27T17:42:16.194Z,9.33
2022-11-27T17:44:58.464Z,9.30
2022-11-27T17:47:30.766Z,9.27
2022-11-27T17:50:00.126Z,9.24
2022-11-27T17:52:27.874Z,9.19
2022-11-27T17:54:55.204Z,9.15
2022-11-27T17:57:21.899Z,9.11
2022-11-27T17:59:50.388Z,9.10
2022-11-27T18:02:17.400Z,9.09
2022-11-27T18:04:49.890Z,9.07
2022-11-27T18:07:22.316Z,9.07
2022-11-27T18:09:50.435Z,9.07
2022-11-27T18:12:17.208Z,9.07
2022-11-27T18:14:46.469Z,9.05
2022-11-27T18:17:17.347Z,9.01
2022-11-27T18:19:51.784Z,9.00
2022-11-27T18:22:20.822Z,9.01
2022-11-27T18:24:50.266Z,9.01
2022-11-27T18:27:17.414Z,9.00
2022-11-27T18:29:50.108Z,8.98
2022-11-27T18:32:18.484Z,8.98
2022-11-27T18:34:45.323Z,9.00
2022-11-27T18:37:12.425Z,8.98
2022-11-27T18:39:39.442Z,8.94
2022-11-27T18:42:09.084Z,8.93
2022-11-27T18:44:41.313Z,8.93
2022-11-27T18:47:11.436Z,8.94
2022-11-27T18:49:42.243Z,8.93
2022-11-27T18:52:17.378Z,8.95
2022-11-27T18:54:46.201Z,8.93
2022-11-27T18:57:13.303Z,8.91
2022-11-27T18:59:42.451Z,8.89
2022-11-27T19:02:19.411Z,8.89
2022-11-27T19:04:46.019Z,8.87
2022-11-27T19:07:15.680Z,8.82
2022-11-27T19:09:42.408Z,8.80
2022-11-27T19:12:12.248Z,8.81
2022-11-27T19:14:39.398Z,8.85
2022-11-27T19:17:08.492Z,8.85
2022-11-27T19:22:23.735Z,8.83
2022-11-27T19:24:50.405Z,8.86
2022-11-27T19:27:19.137Z,8.86
2022-11-27T19:29:49.022Z,8.85
2022-11-27T19:32:20.110Z,8.82
2022-11-27T19:34:50.217Z,8.83
2022-11-27T19:37:33.133Z,8.83
2022-11-27T19:40:05.174Z,8.79
2022-11-27T19:42:32.307Z,8.79
2022-11-27T19:44:59.921Z,8.80
2022-11-27T19:47:27.171Z,8.79
2022-11-27T19:49:54.176Z,8.77
2022-11-27T19:52:31.628Z,8.77
2022-11-27T19:55:54.960Z,8.79
2022-11-27T19:58:36.548Z,8.79
2022-11-27T20:01:35.160Z,8.78
2022-11-27T20:04:37.185Z,8.78
2022-11-27T20:07:02.222Z,8.80
2022-11-27T20:09:33.560Z,8.80
2022-11-27T20:12:02.775Z,8.79
2022-11-27T20:14:31.005Z,8.78
2022-11-27T20:16:57.740Z,8.76
2022-11-27T20:19:47.726Z,8.74
2022-11-27T20:22:22.699Z,8.75
2022-11-27T20:25:11.615Z,8.73
2022-11-27T20:27:36.313Z,8.71
2022-11-27T20:30:06.461Z,8.76
2022-11-27T20:32:36.870Z,8.78
2022-11-27T20:35:03.623Z,8.72
2022-11-27T20:37:30.459Z,8.77
2022-11-27T20:40:03.677Z,8.75
2022-11-27T20:42:33.177Z,8.75
2022-11-27T20:45:05.038Z,8.75
2022-11-27T20:47:32.505Z,8.75
2022-11-27T20:50:02.211Z,8.77
2022-11-27T20:52:34.410Z,8.73
2022-11-27T20:55:01.330Z,8.72
2022-11-27T20:57:28.876Z,8.70
2022-11-27T20:59:55.824Z,8.70
2022-11-27T21:02:24.983Z,8.74
2022-11-27T21:05:00.910Z,8.74
2022-11-27T21:07:30.492Z,8.74
2022-11-27T21:09:57.155Z,8.76
2022-11-27T21:12:46.027Z,8.79
2022-11-27T21:15:21.533Z,8.81
2022-11-27T21:17:53.810Z,8.80
2022-11-27T21:20:21.042Z,8.79
2022-11-27T21:22:53.127Z,8.68
2022-11-27T21:25:25.132Z,8.52
2022-11-27T21:27:55.836Z,8.44
2022-11-27T21:30:22.384Z,8.36
2022-11-27T21:32:48.938Z,8.31
2022-11-27T21:35:18.285Z,8.31
2022-11-27T21:37:47.534Z,8.32
2022-11-27T21:40:14.045Z,8.24
2022-11-27T21:42:44.484Z,8.32
2022-11-27T21:45:13.755Z,8.32
2022-11-27T21:47:42.895Z,8.17
2022-11-27T21:50:09.643Z,8.19
2022-11-27T21:52:36.295Z,8.30
2022-11-27T21:55:11.629Z,8.23
2022-11-27T21:57:39.066Z,8.06
2022-11-27T22:00:06.081Z,7.95
2022-11-27T22:02:38.781Z,7.98
2022-11-27T22:05:05.567Z,8.04
2022-11-27T22:07:34.729Z,8.13
2022-11-27T22:10:01.395Z,8.17
2022-11-27T22:12:27.911Z,8.19
2022-11-27T22:14:54.495Z,8.17
2022-11-27T22:17:23.834Z,8.22
2022-11-27T22:19:51.625Z,8.13
2022-11-27T22:22:25.517Z,8.14
2022-11-27T22:24:52.196Z,8.12
2022-11-27T22:27:18.788Z,8.09
2022-11-27T22:29:49.437Z,8.10
2022-11-27T22:32:16.245Z,8.12
2022-11-27T22:34:45.393Z,8.06
2022-11-27T22:37:12.648Z,8.02
2022-11-27T22:39:39.258Z,7.99
2022-11-27T22:42:05.822Z,8.00
2022-11-27T22:44:32.349Z,7.96
2022-11-27T22:47:01.897Z,7.96
2022-11-27T22:49:28.535Z,8.01
2022-11-27T22:51:57.488Z,8.03
2022-11-27T22:54:24.577Z,8.01
2022-11-27T22:56:51.277Z,8.06
2022-11-27T22:59:32.176Z,8.10
2022-11-27T23:01:59.918Z,8.14
2022-11-27T23:04:26.889Z,8.19
2022-11-27T23:06:53.582Z,8.15
2022-11-27T23:09:23.518Z,8.15
2022-11-27T23:11:52.884Z,8.17
2022-11-27T23:14:21.914Z,8.20
2022-11-27T23:16:49.530Z,8.16
2022-11-27T23:19:16.173Z,8.17
2022-11-27T23:21:47.990Z,8.11
2022-11-27T23:24:16.686Z,8.06
2022-11-27T23:26:43.488Z,8.03
2022-11-27T23:29:10.487Z,8.07
2022-11-27T23:31:39.656Z,8.05
2022-11-27T23:34:13.578Z,8.00
2022-11-27T23:36:40.153Z,8.05
2022-11-27T23:39:07.724Z,8.02
2022-11-27T23:41:34.322Z,7.98
2022-11-27T23:44:01.664Z,7.98
2022-11-27T23:46:28.978Z,7.94
2022-11-27T23:48:56.011Z,7.92
2022-11-27T23:51:23.983Z,7.94
2022-11-27T23:53:50.612Z,7.92
2022-11-27T23:56:21.071Z,7.93
2022-11-27T23:58:47.927Z,7.82
